sensor_id;sensor_type;location;lat;lon;timestamp;P1;durP1;ratioP1;P2;durP2;ratioP2
44476;SDS011;30180;44.788;10.366;2023-04-15T00:01:08;4.28;;;1.52;;
44476;SDS011;30180;44.788;10.366;2023-04-15T00:03:50;3.97;;;1.27;;
44476;SDS011;30180;44.788;10.366;2023-04-15T00:06:19;5.78;;;1.77;;
44476;SDS011;30180;44.788;10.366;2023-04-15T00:08:48;4.38;;;1.40;;
44476;SDS011;30180;44.788;10.366;2023-04-15T00:11:24;3.55;;;1.27;;
44476;SDS011;30180;44.788;10.366;2023-04-15T00:13:57;4.53;;;1.55;;
44476;SDS011;30180;44.788;10.366;2023-04-15T00:16:30;4.40;;;1.20;;
44476;SDS011;30180;44.788;10.366;2023-04-15T00:18:59;4.25;;;1.50;;
44476;SDS011;30180;44.788;10.366;2023-04-15T00:21:28;5.28;;;1.27;;
44476;SDS011;30180;44.788;10.366;2023-04-15T00:23:58;6.22;;;1.67;;
44476;SDS011;30180;44.788;10.366;2023-04-15T00:26:28;5.47;;;1.70;;
44476;SDS011;30180;44.788;10.366;2023-04-15T00:28:57;4.13;;;1.33;;
44476;SDS011;30180;44.788;10.366;2023-04-15T00:31:25;3.88;;;1.52;;
44476;SDS011;30180;44.788;10.366;2023-04-15T00:33:55;4.07;;;1.30;;
44476;SDS011;30180;44.788;10.366;2023-04-15T00:36:23;4.20;;;1.20;;
44476;SDS011;30180;44.788;10.366;2023-04-15T00:38:52;4.28;;;1.20;;
44476;SDS011;30180;44.788;10.366;2023-04-15T00:41:20;3.88;;;1.42;;
44476;SDS011;30180;44.788;10.366;2023-04-15T00:43:49;4.72;;;1.23;;
44476;SDS011;30180;44.788;10.366;2023-04-15T00:46:17;4.13;;;1.55;;
44476;SDS011;30180;44.788;10.366;2023-04-15T00:48:47;4.13;;;1.40;;
44476;SDS011;30180;44.788;10.366;2023-04-15T00:51:17;8.00;;;1.73;;
44476;SDS011;30180;44.788;10.366;2023-04-15T00:53:45;5.28;;;1.70;;
44476;SDS011;30180;44.788;10.366;2023-04-15T00:56:13;3.92;;;1.50;;
44476;SDS011;30180;44.788;10.366;2023-04-15T00:58:42;5.90;;;1.75;;
44476;SDS011;30180;44.788;10.366;2023-04-15T01:01:10;3.13;;;1.13;;
44476;SDS011;30180;44.788;10.366;2023-04-15T01:03:38;4.05;;;1.23;;
44476;SDS011;30180;44.788;10.366;2023-04-15T01:06:07;3.85;;;1.50;;
44476;SDS011;30180;44.788;10.366;2023-04-15T01:08:36;4.18;;;1.17;;
44476;SDS011;30180;44.788;10.366;2023-04-15T01:11:04;4.35;;;1.30;;
44476;SDS011;30180;44.788;10.366;2023-04-15T01:13:34;4.47;;;1.20;;
44476;SDS011;30180;44.788;10.366;2023-04-15T01:16:03;3.55;;;1.02;;
44476;SDS011;30180;44.788;10.366;2023-04-15T01:18:33;3.10;;;1.00;;
44476;SDS011;30180;44.788;10.366;2023-04-15T01:21:03;4.25;;;1.60;;
44476;SDS011;30180;44.788;10.366;2023-04-15T01:23:34;4.13;;;1.53;;
44476;SDS011;30180;44.788;10.366;2023-04-15T01:26:06;5.15;;;1.48;;
44476;SDS011;30180;44.788;10.366;2023-04-15T01:28:35;3.47;;;1.30;;
44476;SDS011;30180;44.788;10.366;2023-04-15T01:31:05;4.15;;;1.38;;
44476;SDS011;30180;44.788;10.366;2023-04-15T01:33:34;4.80;;;1.40;;
44476;SDS011;30180;44.788;10.366;2023-04-15T01:36:02;3.78;;;1.27;;
44476;SDS011;30180;44.788;10.366;2023-04-15T01:38:32;2.78;;;0.93;;
44476;SDS011;30180;44.788;10.366;2023-04-15T01:41:01;3.92;;;1.20;;
44476;SDS011;30180;44.788;10.366;2023-04-15T01:43:31;4.22;;;1.13;;
44476;SDS011;30180;44.788;10.366;2023-04-15T01:45:59;6.45;;;1.42;;
44476;SDS011;30180;44.788;10.366;2023-04-15T01:48:28;2.92;;;1.00;;
44476;SDS011;30180;44.788;10.366;2023-04-15T01:50:56;4.20;;;1.25;;
44476;SDS011;30180;44.788;10.366;2023-04-15T01:53:25;3.55;;;1.02;;
44476;SDS011;30180;44.788;10.366;2023-04-15T01:55:53;3.17;;;1.10;;
44476;SDS011;30180;44.788;10.366;2023-04-15T01:58:22;3.30;;;0.88;;
44476;SDS011;30180;44.788;10.366;2023-04-15T02:00:51;4.35;;;1.20;;
44476;SDS011;30180;44.788;10.366;2023-04-15T02:03:20;3.63;;;0.90;;
44476;SDS011;30180;44.788;10.366;2023-04-15T02:05:48;3.85;;;1.15;;
44476;SDS011;30180;44.788;10.366;2023-04-15T02:08:17;4.90;;;1.15;;
44476;SDS011;30180;44.788;10.366;2023-04-15T02:10:45;3.55;;;1.02;;
44476;SDS011;30180;44.788;10.366;2023-04-15T02:13:14;5.80;;;1.20;;
44476;SDS011;30180;44.788;10.366;2023-04-15T02:15:45;3.50;;;1.15;;
44476;SDS011;30180;44.788;10.366;2023-04-15T02:18:16;3.17;;;0.98;;
44476;SDS011;30180;44.788;10.366;2023-04-15T02:20:44;3.58;;;1.17;;
44476;SDS011;30180;44.788;10.366;2023-04-15T02:23:12;4.90;;;1.15;;
44476;SDS011;30180;44.788;10.366;2023-04-15T02:25:41;2.88;;;1.05;;
44476;SDS011;30180;44.788;10.366;2023-04-15T02:28:19;3.63;;;1.10;;
44476;SDS011;30180;44.788;10.366;2023-04-15T02:30:47;2.67;;;0.80;;
44476;SDS011;30180;44.788;10.366;2023-04-15T02:33:20;3.42;;;1.27;;
44476;SDS011;30180;44.788;10.366;2023-04-15T02:35:48;2.92;;;1.00;;
44476;SDS011;30180;44.788;10.366;2023-04-15T02:38:18;2.33;;;0.93;;
44476;SDS011;30180;44.788;10.366;2023-04-15T02:40:46;4.72;;;1.45;;
44476;SDS011;30180;44.788;10.366;2023-04-15T02:43:15;2.40;;;0.90;;
44476;SDS011;30180;44.788;10.366;2023-04-15T02:45:44;2.88;;;0.70;;
44476;SDS011;30180;44.788;10.366;2023-04-15T02:48:13;2.92;;;1.27;;
44476;SDS011;30180;44.788;10.366;2023-04-15T02:50:44;4.00;;;0.90;;
44476;SDS011;30180;44.788;10.366;2023-04-15T02:53:13;2.42;;;0.80;;
44476;SDS011;30180;44.788;10.366;2023-04-15T02:55:42;3.47;;;0.88;;
44476;SDS011;30180;44.788;10.366;2023-04-15T02:58:11;2.05;;;0.70;;
44476;SDS011;30180;44.788;10.366;2023-04-15T03:00:39;4.10;;;0.90;;
44476;SDS011;30180;44.788;10.366;2023-04-15T03:03:08;3.60;;;1.00;;
44476;SDS011;30180;44.788;10.366;2023-04-15T03:05:36;3.42;;;0.82;;
44476;SDS011;30180;44.788;10.366;2023-04-15T03:08:06;2.38;;;1.00;;
44476;SDS011;30180;44.788;10.366;2023-04-15T03:10:35;3.40;;;1.10;;
44476;SDS011;30180;44.788;10.366;2023-04-15T03:13:03;3.33;;;1.20;;
44476;SDS011;30180;44.788;10.366;2023-04-15T03:15:31;3.53;;;1.13;;
44476;SDS011;30180;44.788;10.366;2023-04-15T03:17:59;4.35;;;1.00;;
44476;SDS011;30180;44.788;10.366;2023-04-15T03:20:28;3.45;;;0.98;;
44476;SDS011;30180;44.788;10.366;2023-04-15T03:22:57;4.75;;;0.90;;
44476;SDS011;30180;44.788;10.366;2023-04-15T03:25:26;1.75;;;0.77;;
44476;SDS011;30180;44.788;10.366;2023-04-15T03:27:54;2.60;;;0.80;;
44476;SDS011;30180;44.788;10.366;2023-04-15T03:30:23;3.78;;;1.10;;
44476;SDS011;30180;44.788;10.366;2023-04-15T03:32:51;3.53;;;1.10;;
44476;SDS011;30180;44.788;10.366;2023-04-15T03:35:20;2.55;;;0.80;;
44476;SDS011;30180;44.788;10.366;2023-04-15T03:37:48;2.55;;;1.05;;
44476;SDS011;30180;44.788;10.366;2023-04-15T03:40:17;5.10;;;1.13;;
44476;SDS011;30180;44.788;10.366;2023-04-15T03:42:46;4.15;;;1.17;;
44476;SDS011;30180;44.788;10.366;2023-04-15T03:45:15;2.50;;;0.90;;
44476;SDS011;30180;44.788;10.366;2023-04-15T03:47:43;3.70;;;1.10;;
44476;SDS011;30180;44.788;10.366;2023-04-15T03:50:11;2.88;;;0.80;;
44476;SDS011;30180;44.788;10.366;2023-04-15T03:52:40;2.45;;;0.90;;
44476;SDS011;30180;44.788;10.366;2023-04-15T03:55:08;2.35;;;0.93;;
44476;SDS011;30180;44.788;10.366;2023-04-15T03:57:36;3.03;;;0.80;;
44476;SDS011;30180;44.788;10.366;2023-04-15T04:00:07;2.78;;;0.90;;
44476;SDS011;30180;44.788;10.366;2023-04-15T04:02:36;2.38;;;0.90;;
44476;SDS011;30180;44.788;10.366;2023-04-15T04:05:05;2.17;;;0.82;;
44476;SDS011;30180;44.788;10.366;2023-04-15T04:07:33;1.95;;;0.73;;
44476;SDS011;30180;44.788;10.366;2023-04-15T04:10:02;3.15;;;1.02;;
44476;SDS011;30180;44.788;10.366;2023-04-15T04:12:30;2.78;;;0.85;;
44476;SDS011;30180;44.788;10.366;2023-04-15T04:14:58;2.88;;;0.70;;
44476;SDS011;30180;44.788;10.366;2023-04-15T04:17:28;3.58;;;0.98;;
44476;SDS011;30180;44.788;10.366;2023-04-15T04:19:56;1.70;;;0.90;;
44476;SDS011;30180;44.788;10.366;2023-04-15T04:22:24;2.15;;;0.80;;
44476;SDS011;30180;44.788;10.366;2023-04-15T04:24:53;2.90;;;0.80;;
44476;SDS011;30180;44.788;10.366;2023-04-15T04:27:22;3.58;;;0.80;;
44476;SDS011;30180;44.788;10.366;2023-04-15T04:29:50;3.25;;;1.00;;
44476;SDS011;30180;44.788;10.366;2023-04-15T04:32:18;2.83;;;0.70;;
44476;SDS011;30180;44.788;10.366;2023-04-15T04:34:48;2.95;;;1.05;;
44476;SDS011;30180;44.788;10.366;2023-04-15T04:37:16;1.63;;;0.70;;
44476;SDS011;30180;44.788;10.366;2023-04-15T04:39:45;4.53;;;1.10;;
44476;SDS011;30180;44.788;10.366;2023-04-15T04:42:13;2.28;;;0.80;;
44476;SDS011;30180;44.788;10.366;2023-04-15T04:44:41;1.67;;;0.75;;
44476;SDS011;30180;44.788;10.366;2023-04-15T04:47:09;2.58;;;0.82;;
44476;SDS011;30180;44.788;10.366;2023-04-15T04:49:38;5.70;;;1.00;;
44476;SDS011;30180;44.788;10.366;2023-04-15T04:52:07;5.22;;;0.93;;
44476;SDS011;30180;44.788;10.366;2023-04-15T04:54:36;2.85;;;1.02;;
44476;SDS011;30180;44.788;10.366;2023-04-15T04:57:04;2.78;;;0.95;;
44476;SDS011;30180;44.788;10.366;2023-04-15T04:59:33;1.88;;;0.70;;
44476;SDS011;30180;44.788;10.366;2023-04-15T05:02:01;2.92;;;0.90;;
44476;SDS011;30180;44.788;10.366;2023-04-15T05:04:30;2.17;;;0.65;;
44476;SDS011;30180;44.788;10.366;2023-04-15T05:06:58;3.30;;;1.00;;
44476;SDS011;30180;44.788;10.366;2023-04-15T05:09:28;2.55;;;1.00;;
44476;SDS011;30180;44.788;10.366;2023-04-15T05:11:57;5.95;;;1.10;;
44476;SDS011;30180;44.788;10.366;2023-04-15T05:14:26;2.90;;;1.02;;
44476;SDS011;30180;44.788;10.366;2023-04-15T05:16:54;1.88;;;0.80;;
44476;SDS011;30180;44.788;10.366;2023-04-15T05:19:23;3.08;;;1.02;;
44476;SDS011;30180;44.788;10.366;2023-04-15T05:21:51;1.65;;;0.80;;
44476;SDS011;30180;44.788;10.366;2023-04-15T05:24:19;3.00;;;1.02;;
44476;SDS011;30180;44.788;10.366;2023-04-15T05:26:49;3.30;;;0.70;;
44476;SDS011;30180;44.788;10.366;2023-04-15T05:29:17;4.07;;;1.15;;
44476;SDS011;30180;44.788;10.366;2023-04-15T05:31:45;2.25;;;0.82;;
44476;SDS011;30180;44.788;10.366;2023-04-15T05:34:13;2.60;;;0.85;;
44476;SDS011;30180;44.788;10.366;2023-04-15T05:36:42;4.10;;;0.77;;
44476;SDS011;30180;44.788;10.366;2023-04-15T05:39:11;2.72;;;0.70;;
44476;SDS011;30180;44.788;10.366;2023-04-15T05:41:39;3.28;;;0.80;;
44476;SDS011;30180;44.788;10.366;2023-04-15T05:44:09;3.20;;;1.00;;
44476;SDS011;30180;44.788;10.366;2023-04-15T05:46:37;2.15;;;0.75;;
44476;SDS011;30180;44.788;10.366;2023-04-15T05:49:05;1.98;;;0.65;;
44476;SDS011;30180;44.788;10.366;2023-04-15T05:51:34;2.83;;;1.02;;
44476;SDS011;30180;44.788;10.366;2023-04-15T05:54:02;2.60;;;0.80;;
44476;SDS011;30180;44.788;10.366;2023-04-15T05:56:31;3.40;;;0.88;;
44476;SDS011;30180;44.788;10.366;2023-04-15T05:58:59;4.75;;;1.17;;
44476;SDS011;30180;44.788;10.366;2023-04-15T06:01:29;5.35;;;0.85;;
44476;SDS011;30180;44.788;10.366;2023-04-15T06:03:57;4.10;;;0.98;;
44476;SDS011;30180;44.788;10.366;2023-04-15T06:06:25;2.83;;;0.95;;
44476;SDS011;30180;44.788;10.366;2023-04-15T06:08:54;2.90;;;1.00;;
44476;SDS011;30180;44.788;10.366;2023-04-15T06:11:22;3.08;;;0.90;;
44476;SDS011;30180;44.788;10.366;2023-04-15T06:13:52;2.53;;;0.85;;
44476;SDS011;30180;44.788;10.366;2023-04-15T06:16:20;2.70;;;1.00;;
44476;SDS011;30180;44.788;10.366;2023-04-15T06:18:50;4.40;;;0.80;;
44476;SDS011;30180;44.788;10.366;2023-04-15T06:21:18;3.97;;;1.10;;
44476;SDS011;30180;44.788;10.366;2023-04-15T06:23:46;1.52;;;0.63;;
44476;SDS011;30180;44.788;10.366;2023-04-15T06:26:15;5.03;;;0.88;;
44476;SDS011;30180;44.788;10.366;2023-04-15T06:28:43;2.35;;;0.73;;
44476;SDS011;30180;44.788;10.366;2023-04-15T06:31:11;3.25;;;0.90;;
44476;SDS011;30180;44.788;10.366;2023-04-15T06:33:39;2.20;;;0.68;;
44476;SDS011;30180;44.788;10.366;2023-04-15T06:36:09;2.67;;;0.70;;
44476;SDS011;30180;44.788;10.366;2023-04-15T06:38:37;4.88;;;0.80;;
44476;SDS011;30180;44.788;10.366;2023-04-15T06:41:06;4.05;;;1.05;;
44476;SDS011;30180;44.788;10.366;2023-04-15T06:43:34;4.10;;;0.93;;
44476;SDS011;30180;44.788;10.366;2023-04-15T06:46:02;1.58;;;0.70;;
44476;SDS011;30180;44.788;10.366;2023-04-15T06:48:31;3.13;;;0.90;;
44476;SDS011;30180;44.788;10.366;2023-04-15T06:50:59;3.40;;;1.00;;
44476;SDS011;30180;44.788;10.366;2023-04-15T06:53:28;3.20;;;0.85;;
44476;SDS011;30180;44.788;10.366;2023-04-15T06:55:57;3.05;;;1.00;;
44476;SDS011;30180;44.788;10.366;2023-04-15T06:58:25;3.45;;;0.80;;
44476;SDS011;30180;44.788;10.366;2023-04-15T07:00:54;3.05;;;0.90;;
44476;SDS011;30180;44.788;10.366;2023-04-15T07:03:22;2.35;;;0.90;;
44476;SDS011;30180;44.788;10.366;2023-04-15T07:05:51;2.95;;;0.93;;
44476;SDS011;30180;44.788;10.366;2023-04-15T07:08:20;2.92;;;0.80;;
44476;SDS011;30180;44.788;10.366;2023-04-15T07:10:51;7.40;;;0.90;;
44476;SDS011;30180;44.788;10.366;2023-04-15T07:13:19;3.30;;;0.68;;
44476;SDS011;30180;44.788;10.366;2023-04-15T07:15:47;4.30;;;0.90;;
44476;SDS011;30180;44.788;10.366;2023-04-15T07:18:15;3.55;;;0.90;;
44476;SDS011;30180;44.788;10.366;2023-04-15T07:20:44;3.22;;;0.90;;
44476;SDS011;30180;44.788;10.366;2023-04-15T07:23:12;7.35;;;0.95;;
44476;SDS011;30180;44.788;10.366;2023-04-15T07:25:40;3.72;;;0.90;;
44476;SDS011;30180;44.788;10.366;2023-04-15T07:28:10;1.90;;;0.65;;
44476;SDS011;30180;44.788;10.366;2023-04-15T07:30:38;5.20;;;1.00;;
44476;SDS011;30180;44.788;10.366;2023-04-15T07:33:06;6.53;;;1.05;;
44476;SDS011;30180;44.788;10.366;2023-04-15T07:35:35;2.78;;;0.82;;
44476;SDS011;30180;44.788;10.366;2023-04-15T07:38:03;2.90;;;0.90;;
44476;SDS011;30180;44.788;10.366;2023-04-15T07:40:32;4.20;;;1.10;;
44476;SDS011;30180;44.788;10.366;2023-04-15T07:43:00;3.40;;;1.00;;
44476;SDS011;30180;44.788;10.366;2023-04-15T07:45:30;2.47;;;0.77;;
44476;SDS011;30180;44.788;10.366;2023-04-15T07:47:58;2.10;;;0.60;;
44476;SDS011;30180;44.788;10.366;2023-04-15T07:50:27;4.25;;;0.80;;
44476;SDS011;30180;44.788;10.366;2023-04-15T07:52:55;12.18;;;1.13;;
44476;SDS011;30180;44.788;10.366;2023-04-15T07:55:24;5.18;;;1.23;;
44476;SDS011;30180;44.788;10.366;2023-04-15T07:57:53;2.65;;;0.90;;
44476;SDS011;30180;44.788;10.366;2023-04-15T08:00:22;2.78;;;1.00;;
44476;SDS011;30180;44.788;10.366;2023-04-15T08:02:51;4.95;;;1.00;;
44476;SDS011;30180;44.788;10.366;2023-04-15T08:05:22;3.65;;;1.25;;
44476;SDS011;30180;44.788;10.366;2023-04-15T08:07:51;2.72;;;1.00;;
44476;SDS011;30180;44.788;10.366;2023-04-15T08:10:19;5.45;;;1.00;;
44476;SDS011;30180;44.788;10.366;2023-04-15T08:12:47;3.92;;;1.00;;
44476;SDS011;30180;44.788;10.366;2023-04-15T08:15:19;4.28;;;0.98;;
44476;SDS011;30180;44.788;10.366;2023-04-15T08:17:47;5.07;;;1.20;;
44476;SDS011;30180;44.788;10.366;2023-04-15T08:20:18;4.88;;;0.90;;
44476;SDS011;30180;44.788;10.366;2023-04-15T08:22:46;3.60;;;1.27;;
44476;SDS011;30180;44.788;10.366;2023-04-15T08:25:17;4.32;;;1.35;;
44476;SDS011;30180;44.788;10.366;2023-04-15T08:27:46;3.75;;;1.23;;
44476;SDS011;30180;44.788;10.366;2023-04-15T08:30:15;3.28;;;1.00;;
44476;SDS011;30180;44.788;10.366;2023-04-15T08:32:44;2.63;;;1.60;;
44476;SDS011;30180;44.788;10.366;2023-04-15T08:35:13;4.22;;;1.00;;
44476;SDS011;30180;44.788;10.366;2023-04-15T08:37:43;3.67;;;1.13;;
44476;SDS011;30180;44.788;10.366;2023-04-15T08:40:11;5.43;;;1.30;;
44476;SDS011;30180;44.788;10.366;2023-04-15T08:42:40;3.20;;;0.82;;
44476;SDS011;30180;44.788;10.366;2023-04-15T08:45:11;3.95;;;1.10;;
44476;SDS011;30180;44.788;10.366;2023-04-15T08:47:39;4.18;;;0.93;;
44476;SDS011;30180;44.788;10.366;2023-04-15T08:50:09;4.45;;;1.13;;
44476;SDS011;30180;44.788;10.366;2023-04-15T08:52:38;4.65;;;1.08;;
44476;SDS011;30180;44.788;10.366;2023-04-15T08:55:08;2.63;;;1.00;;
44476;SDS011;30180;44.788;10.366;2023-04-15T08:57:38;2.88;;;0.98;;
44476;SDS011;30180;44.788;10.366;2023-04-15T09:00:07;8.35;;;2.08;;
44476;SDS011;30180;44.788;10.366;2023-04-15T09:02:36;11.75;;;2.75;;
44476;SDS011;30180;44.788;10.366;2023-04-15T09:05:05;5.53;;;1.50;;
44476;SDS011;30180;44.788;10.366;2023-04-15T09:07:34;6.88;;;1.70;;
44476;SDS011;30180;44.788;10.366;2023-04-15T09:10:03;6.07;;;1.80;;
44476;SDS011;30180;44.788;10.366;2023-04-15T09:12:34;4.70;;;1.70;;
44476;SDS011;30180;44.788;10.366;2023-04-15T09:15:03;6.53;;;1.63;;
44476;SDS011;30180;44.788;10.366;2023-04-15T09:17:33;6.15;;;1.52;;
44476;SDS011;30180;44.788;10.366;2023-04-15T09:20:06;4.55;;;1.25;;
44476;SDS011;30180;44.788;10.366;2023-04-15T09:22:36;5.32;;;1.48;;
44476;SDS011;30180;44.788;10.366;2023-04-15T09:25:12;6.57;;;1.40;;
44476;SDS011;30180;44.788;10.366;2023-04-15T09:27:55;6.68;;;1.77;;
44476;SDS011;30180;44.788;10.366;2023-04-15T09:30:24;4.88;;;1.70;;
44476;SDS011;30180;44.788;10.366;2023-04-15T09:32:54;6.78;;;1.60;;
44476;SDS011;30180;44.788;10.366;2023-04-15T09:35:24;4.82;;;1.20;;
44476;SDS011;30180;44.788;10.366;2023-04-15T09:38:00;4.40;;;1.13;;
44476;SDS011;30180;44.788;10.366;2023-04-15T09:40:30;4.15;;;1.25;;
44476;SDS011;30180;44.788;10.366;2023-04-15T09:43:00;6.22;;;1.80;;
44476;SDS011;30180;44.788;10.366;2023-04-15T09:48:00;5.45;;;2.25;;
44476;SDS011;30180;44.788;10.366;2023-04-15T09:50:42;9.18;;;2.05;;
44476;SDS011;30180;44.788;10.366;2023-04-15T09:53:14;5.25;;;2.30;;
44476;SDS011;30180;44.788;10.366;2023-04-15T09:55:44;5.30;;;2.35;;
44476;SDS011;30180;44.788;10.366;2023-04-15T09:58:21;5.35;;;2.25;;
44476;SDS011;30180;44.788;10.366;2023-04-15T10:00:51;9.27;;;2.20;;
44476;SDS011;30180;44.788;10.366;2023-04-15T10:03:20;3.65;;;1.77;;
44476;SDS011;30180;44.788;10.366;2023-04-15T10:05:50;5.20;;;2.33;;
44476;SDS011;30180;44.788;10.366;2023-04-15T10:08:20;6.15;;;2.25;;
44476;SDS011;30180;44.788;10.366;2023-04-15T10:10:50;3.80;;;1.90;;
44476;SDS011;30180;44.788;10.366;2023-04-15T10:13:20;3.90;;;1.90;;
44476;SDS011;30180;44.788;10.366;2023-04-15T10:15:51;7.13;;;2.38;;
44476;SDS011;30180;44.788;10.366;2023-04-15T10:18:25;5.05;;;1.92;;
44476;SDS011;30180;44.788;10.366;2023-04-15T10:20:54;8.10;;;2.20;;
44476;SDS011;30180;44.788;10.366;2023-04-15T10:23:22;5.05;;;1.90;;
44476;SDS011;30180;44.788;10.366;2023-04-15T10:25:51;6.18;;;2.47;;
44476;SDS011;30180;44.788;10.366;2023-04-15T10:28:22;5.47;;;1.65;;
44476;SDS011;30180;44.788;10.366;2023-04-15T10:30:50;5.63;;;1.98;;
44476;SDS011;30180;44.788;10.366;2023-04-15T10:33:20;4.38;;;1.83;;
44476;SDS011;30180;44.788;10.366;2023-04-15T10:35:50;3.58;;;1.60;;
44476;SDS011;30180;44.788;10.366;2023-04-15T10:38:30;5.43;;;2.00;;
44476;SDS011;30180;44.788;10.366;2023-04-15T10:41:15;3.72;;;1.90;;
44476;SDS011;30180;44.788;10.366;2023-04-15T10:43:49;3.85;;;1.80;;
44476;SDS011;30180;44.788;10.366;2023-04-15T10:46:20;6.72;;;1.90;;
44476;SDS011;30180;44.788;10.366;2023-04-15T10:48:52;6.53;;;2.17;;
44476;SDS011;30180;44.788;10.366;2023-04-15T10:51:27;5.80;;;1.90;;
44476;SDS011;30180;44.788;10.366;2023-04-15T10:53:58;4.88;;;1.80;;
44476;SDS011;30180;44.788;10.366;2023-04-15T10:56:27;6.22;;;1.92;;
44476;SDS011;30180;44.788;10.366;2023-04-15T10:58:59;7.80;;;1.70;;
44476;SDS011;30180;44.788;10.366;2023-04-15T11:07:38;6.47;;;1.58;;
44476;SDS011;30180;44.788;10.366;2023-04-15T11:13:22;5.10;;;1.45;;
44476;SDS011;30180;44.788;10.366;2023-04-15T11:16:00;3.05;;;1.23;;
44476;SDS011;30180;44.788;10.366;2023-04-15T11:18:29;5.28;;;1.77;;
44476;SDS011;30180;44.788;10.366;2023-04-15T11:21:00;5.55;;;1.23;;
44476;SDS011;30180;44.788;10.366;2023-04-15T11:23:31;3.53;;;1.20;;
44476;SDS011;30180;44.788;10.366;2023-04-15T11:26:01;3.58;;;1.67;;
44476;SDS011;30180;44.788;10.366;2023-04-15T11:28:34;3.67;;;1.15;;
44476;SDS011;30180;44.788;10.366;2023-04-15T11:31:06;5.80;;;1.33;;
44476;SDS011;30180;44.788;10.366;2023-04-15T11:33:38;3.15;;;0.98;;
44476;SDS011;30180;44.788;10.366;2023-04-15T11:36:13;5.68;;;1.02;;
44476;SDS011;30180;44.788;10.366;2023-04-15T11:38:42;3.05;;;0.93;;
44476;SDS011;30180;44.788;10.366;2023-04-15T11:41:11;3.45;;;1.00;;
44476;SDS011;30180;44.788;10.366;2023-04-15T11:43:39;7.97;;;1.33;;
44476;SDS011;30180;44.788;10.366;2023-04-15T11:46:09;3.55;;;0.98;;
44476;SDS011;30180;44.788;10.366;2023-04-15T11:48:40;5.45;;;0.85;;
44476;SDS011;30180;44.788;10.366;2023-04-15T11:51:09;2.67;;;1.08;;
44476;SDS011;30180;44.788;10.366;2023-04-15T11:53:39;3.10;;;0.98;;
44476;SDS011;30180;44.788;10.366;2023-04-15T11:56:09;2.30;;;0.93;;
44476;SDS011;30180;44.788;10.366;2023-04-15T11:58:43;3.55;;;1.10;;
44476;SDS011;30180;44.788;10.366;2023-04-15T12:01:13;3.88;;;1.05;;
44476;SDS011;30180;44.788;10.366;2023-04-15T12:03:42;3.03;;;0.85;;
44476;SDS011;30180;44.788;10.366;2023-04-15T12:06:16;3.03;;;1.13;;
44476;SDS011;30180;44.788;10.366;2023-04-15T12:08:52;2.60;;;0.88;;
44476;SDS011;30180;44.788;10.366;2023-04-15T12:11:31;2.92;;;0.85;;
44476;SDS011;30180;44.788;10.366;2023-04-15T12:14:02;2.22;;;1.00;;
44476;SDS011;30180;44.788;10.366;2023-04-15T12:19:15;4.30;;;1.02;;
44476;SDS011;30180;44.788;10.366;2023-04-15T12:21:45;3.40;;;0.97;;
44476;SDS011;30180;44.788;10.366;2023-04-15T12:24:14;3.90;;;1.00;;
44476;SDS011;30180;44.788;10.366;2023-04-15T12:26:49;4.53;;;1.15;;
44476;SDS011;30180;44.788;10.366;2023-04-15T12:29:18;2.28;;;0.80;;
44476;SDS011;30180;44.788;10.366;2023-04-15T12:31:53;3.22;;;1.00;;
44476;SDS011;30180;44.788;10.366;2023-04-15T12:34:26;7.60;;;1.27;;
44476;SDS011;30180;44.788;10.366;2023-04-15T12:36:56;3.40;;;0.93;;
44476;SDS011;30180;44.788;10.366;2023-04-15T12:39:26;1.95;;;0.80;;
44476;SDS011;30180;44.788;10.366;2023-04-15T12:41:56;3.70;;;0.93;;
44476;SDS011;30180;44.788;10.366;2023-04-15T12:44:25;2.70;;;1.00;;
44476;SDS011;30180;44.788;10.366;2023-04-15T12:46:56;3.03;;;0.95;;
44476;SDS011;30180;44.788;10.366;2023-04-15T12:51:54;3.50;;;1.40;;
44476;SDS011;30180;44.788;10.366;2023-04-15T12:56:53;2.65;;;0.80;;
44476;SDS011;30180;44.788;10.366;2023-04-15T12:59:21;2.92;;;1.00;;
44476;SDS011;30180;44.788;10.366;2023-04-15T13:01:50;5.30;;;0.90;;
44476;SDS011;30180;44.788;10.366;2023-04-15T13:04:21;1.58;;;0.70;;
44476;SDS011;30180;44.788;10.366;2023-04-15T13:06:50;1.73;;;0.70;;
44476;SDS011;30180;44.788;10.366;2023-04-15T13:09:18;2.25;;;0.88;;
44476;SDS011;30180;44.788;10.366;2023-04-15T13:11:46;3.83;;;0.88;;
44476;SDS011;30180;44.788;10.366;2023-04-15T13:14:16;2.97;;;0.85;;
44476;SDS011;30180;44.788;10.366;2023-04-15T13:16:44;3.25;;;1.02;;
44476;SDS011;30180;44.788;10.366;2023-04-15T13:19:12;4.00;;;0.85;;
44476;SDS011;30180;44.788;10.366;2023-04-15T13:21:42;2.30;;;0.80;;
44476;SDS011;30180;44.788;10.366;2023-04-15T13:24:10;2.83;;;0.88;;
44476;SDS011;30180;44.788;10.366;2023-04-15T13:26:39;4.35;;;0.88;;
44476;SDS011;30180;44.788;10.366;2023-04-15T13:29:07;3.25;;;1.02;;
44476;SDS011;30180;44.788;10.366;2023-04-15T13:31:36;1.65;;;0.88;;
44476;SDS011;30180;44.788;10.366;2023-04-15T13:34:05;3.22;;;0.80;;
44476;SDS011;30180;44.788;10.366;2023-04-15T13:36:33;2.38;;;0.82;;
44476;SDS011;30180;44.788;10.366;2023-04-15T13:39:03;4.20;;;0.75;;
44476;SDS011;30180;44.788;10.366;2023-04-15T13:41:31;3.75;;;0.73;;
44476;SDS011;30180;44.788;10.366;2023-04-15T13:43:59;3.58;;;0.98;;
44476;SDS011;30180;44.788;10.366;2023-04-15T13:46:28;2.47;;;1.13;;
44476;SDS011;30180;44.788;10.366;2023-04-15T13:48:56;3.20;;;0.93;;
44476;SDS011;30180;44.788;10.366;2023-04-15T13:51:24;4.20;;;0.93;;
44476;SDS011;30180;44.788;10.366;2023-04-15T13:53:53;2.88;;;0.80;;
44476;SDS011;30180;44.788;10.366;2023-04-15T13:56:24;2.08;;;0.82;;
44476;SDS011;30180;44.788;10.366;2023-04-15T13:58:52;2.08;;;0.85;;
44476;SDS011;30180;44.788;10.366;2023-04-15T14:01:24;2.25;;;0.73;;
44476;SDS011;30180;44.788;10.366;2023-04-15T14:03:52;1.70;;;0.63;;
44476;SDS011;30180;44.788;10.366;2023-04-15T14:06:21;2.65;;;0.88;;
44476;SDS011;30180;44.788;10.366;2023-04-15T14:08:49;3.65;;;0.70;;
44476;SDS011;30180;44.788;10.366;2023-04-15T14:11:18;4.03;;;0.90;;
44476;SDS011;30180;44.788;10.366;2023-04-15T14:13:48;2.42;;;0.70;;
44476;SDS011;30180;44.788;10.366;2023-04-15T14:16:16;2.00;;;0.80;;
44476;SDS011;30180;44.788;10.366;2023-04-15T14:18:44;2.80;;;0.95;;
44476;SDS011;30180;44.788;10.366;2023-04-15T14:21:12;3.50;;;0.70;;
44476;SDS011;30180;44.788;10.366;2023-04-15T14:23:41;2.50;;;0.80;;
44476;SDS011;30180;44.788;10.366;2023-04-15T14:26:09;1.38;;;0.68;;
44476;SDS011;30180;44.788;10.366;2023-04-15T14:28:39;2.28;;;0.60;;
44476;SDS011;30180;44.788;10.366;2023-04-15T14:31:11;3.05;;;0.80;;
44476;SDS011;30180;44.788;10.366;2023-04-15T14:33:40;1.67;;;0.70;;
44476;SDS011;30180;44.788;10.366;2023-04-15T14:36:08;1.27;;;0.60;;
44476;SDS011;30180;44.788;10.366;2023-04-15T14:38:37;1.90;;;0.77;;
44476;SDS011;30180;44.788;10.366;2023-04-15T14:41:06;3.67;;;0.60;;
44476;SDS011;30180;44.788;10.366;2023-04-15T14:43:35;1.15;;;0.70;;
44476;SDS011;30180;44.788;10.366;2023-04-15T14:46:03;1.73;;;0.88;;
44476;SDS011;30180;44.788;10.366;2023-04-15T14:48:33;2.17;;;0.70;;
44476;SDS011;30180;44.788;10.366;2023-04-15T14:51:02;2.40;;;0.70;;
44476;SDS011;30180;44.788;10.366;2023-04-15T14:53:30;2.33;;;0.60;;
44476;SDS011;30180;44.788;10.366;2023-04-15T14:55:59;2.50;;;0.73;;
44476;SDS011;30180;44.788;10.366;2023-04-15T14:58:27;1.77;;;0.60;;
44476;SDS011;30180;44.788;10.366;2023-04-15T15:00:55;2.78;;;0.80;;
44476;SDS011;30180;44.788;10.366;2023-04-15T15:03:23;2.38;;;0.60;;
44476;SDS011;30180;44.788;10.366;2023-04-15T15:05:53;2.70;;;0.85;;